Language selection

My Weather Profile Weather Topics  | 

Atlantic - Labrador: Past 24 Hour Conditions

 

Cartwright Airport

11:00 AM AST 01 February 2023
Disclaimer

This table is a summary of hourly weather conditions for the past 24 hours.
Please note that these observations might not always be representative of weather conditions over their associated marine area.

Date / Time
(AST)
Wind(knots) Conditions Visibility(km) Pressure(kPa) Air tempC) Relative humidity(%) Dew pointC) Wind Chill
01 February 2023
11:00 SW 10 gust 16 Sunny 16 101.4 -22 56 -29 -33
10:00 WSW 8 gust 15 Sunny 16 101.4 -24 59 -30 -34
9:00 SW 9 Sunny 16 101.4 -24 59 -30 -35
8:00 SW 6 Sunny 16 101.4 -26 69 -30 -35
7:00 SW 5 Clear 16 101.4 -27 69 -31 -34
6:00 SW 7 Clear 16 101.4 -27 70 -30 -36
5:00 SSW 6 Clear 16 101.5 -28 71 -32 -38
4:00 S 5 Clear 16 101.4 -29 71 -32 -37
3:00 SSW 5 Clear 16 101.4 -27 69 -31 -35
2:00 SSW 7 Clear 16 101.5 -28 70 -31 -38
1:00 SSW 3 Clear 16 101.5 -27 63 -32 -33
0:00 SSW 4 Clear 16 101.5 -26 71 -30 -33
31 January 2023
23:00 W 4 Clear 16 101.5 -25 71 -29 -33
22:00 WSW 3 Clear 16 101.6 -25 68 -29 -30
21:00 W 6 Clear 16 101.6 -23 65 -27 -31
20:00 W 5 Clear 16 101.6 -23 67 -27 -30
19:00 WNW 8 Clear 16 101.7 -22 65 -27 -31
18:00 WNW 7 Clear 16 101.7 -21 66 -26 -30
17:00 NW 5 Mainly Clear 16 101.7 -21 64 -26 -28
16:00 N 7 Mainly Sunny 16 101.7 -20 58 -26 -29
15:00 N 8 Cloudy 16 101.7 -20 57 -26 -29
14:00 N 6 Cloudy 16 101.7 -20 65 -25 -27
13:00 NW 8 Cloudy 16 101.7 -20 65 -25 -28
12:00 NW 8 Cloudy 16 101.8 -20 63 -25 -29
11:00 NNW 7 Cloudy 15 101.9 -20 66 -25 -29

Zoom-in to make a selection

Map of Atlantic - Labrador marine weather areas Kangiqsualujjuaq Airport Cape Kakkiviak Cape Kiglapait Cartwright Airport CFB Goose Bay Hopedale Mary's Harbour Nain Airport Makkovik Airport Saglek Tukialik Bay
Legend:
buoy Buoy
land station Land Station

Atlantic - Labrador Area

Another Region

What we are doing

Date modified: